Ise Maru — JG5743 — position and weather

sailwx.info

Track history (hours):
 
Tides and Currents Weather Stations Pressure Air Temp Water Temp Dewpoint Dewpoint Depression Visibility Wind Speed Wind Dir Waves Ship Positions

Ise Maru

Last reported at 2017-Nov-20 00:24 UTC. Time now 2017-Nov-22 09:22 UTC.
Position N 35°29' E 139°58'.

Length 34 m; draft 3.5 m.

Type: Tug. MMSI: 431101046.

Date/timePositionNaut miles runAvg speedWind from/ knotsBaromVisibWave heightAir tempDewpointWater temp
2017-Nov-20 00:24N 35°29' E 139°58'2 5.2
2017-Nov-20 00:00N 35°28' E 139°55'4 7.1
2017-Nov-19 23:23N 35°29' E 140°00'6 0.3
2017-Nov-19 02:13N 35°27' E 139°53'413.3
2017-Nov-19 01:55N 35°25' E 139°50'512.0
2017-Nov-19 01:30N 35°23' E 139°44'5 9.9
2017-Nov-19 01:00N 35°24' E 139°38'0 0.2
2017-Nov-19 00:30N 35°24' E 139°38'0 0.3
2017-Nov-19 00:00N 35°24' E 139°38'0 0.0
2017-Nov-18 23:30N 35°24' E 139°38'0 0.1
2017-Nov-18 23:00N 35°24' E 139°38'0 0.6
2017-Nov-18 22:30N 35°24' E 139°38'0 0.7
2017-Nov-18 22:00N 35°24' E 139°38'1 1.6
2017-Nov-18 21:30N 35°24' E 139°39'612.5
2017-Nov-18 21:00N 35°24' E 139°47'713.2
2017-Nov-18 20:30N 35°28' E 139°53'3 0.2
2017-Nov-18 01:58N 35°30' E 139°54'613.7
2017-Nov-18 01:30N 35°30' E 139°46'1 2.0
2017-Nov-18 01:00N 35°29' E 139°45'0 0.1
2017-Nov-18 00:30N 35°29' E 139°45'3 5.7
2017-Nov-18 00:00N 35°28' E 139°42'0 0.3
2017-Nov-17 23:30N 35°28' E 139°42'0 0.0
2017-Nov-17 22:57N 35°28' E 139°42'0 0.0
2017-Nov-17 22:30N 35°28' E 139°42'0 0.0
2017-Nov-17 22:00N 35°28' E 139°42'0 0.0
2017-Nov-17 21:30N 35°28' E 139°42'0 0.0
2017-Nov-17 20:57N 35°28' E 139°42'0 0.0
2017-Nov-17 20:30N 35°28' E 139°42'0 0.0
2017-Nov-17 20:00N 35°28' E 139°42'0 0.0
2017-Nov-17 19:27N 35°28' E 139°42'0 0.0
2017-Nov-17 18:57N 35°28' E 139°42'0 0.0
2017-Nov-17 18:30N 35°28' E 139°42'0 0.0
2017-Nov-17 18:00N 35°28' E 139°42'0 0.0
2017-Nov-17 17:30N 35°28' E 139°42'0 0.0
2017-Nov-17 17:00N 35°28' E 139°42'0 0.0
2017-Nov-17 16:30N 35°28' E 139°42'0 0.0
2017-Nov-17 16:00N 35°28' E 139°42'0 0.0
2017-Nov-17 15:30N 35°28' E 139°42'2 3.1
2017-Nov-17 15:00N 35°26' E 139°41'1 2.1
2017-Nov-17 14:30N 35°26' E 139°42'0 0.7
2017-Nov-17 14:00N 35°26' E 139°42'4 9.1
2017-Nov-17 13:30N 35°28' E 139°47'9 0.6
2017-Nov-16 22:05N 35°29' E 139°58'0 0.6
2017-Nov-16 21:40N 35°28' E 139°58'0 0.1
2017-Nov-16 18:38N 35°29' E 139°58'0 0.2
2017-Nov-16 18:12N 35°29' E 139°58'0 0.0
2017-Nov-16 17:47N 35°29' E 139°58'0 0.2
2017-Nov-16 17:28N 35°29' E 139°58'0 0.0
2017-Nov-16 08:15N 35°29' E 139°58'0 0.0
2017-Nov-16 02:05N 35°28' E 139°58'0 0.8
2017-Nov-16 01:50N 35°29' E 139°58'0 0.1
2017-Nov-16 01:18N 35°29' E 139°58'0 0.5
2017-Nov-16 00:50N 35°29' E 139°58'7 1.7
2017-Nov-15 20:26N 35°30' E 139°49'2 4.3
2017-Nov-15 20:00N 35°30' E 139°47'1 2.0
2017-Nov-15 19:31N 35°30' E 139°46'0 0.1
2017-Nov-15 19:00N 35°30' E 139°46'611.2
2017-Nov-15 18:30N 35°30' E 139°53'5 0.3
2017-Nov-14 23:49N 35°29' E 139°58'0 0.2
2017-Nov-14 23:19N 35°29' E 139°58'0 0.4
2017-Nov-14 22:51N 35°29' E 139°58'0 0.1
2017-Nov-14 22:06N 35°29' E 139°58'0 0.2
2017-Nov-14 21:47N 35°29' E 139°58'0 0.0
2017-Nov-14 18:19N 35°29' E 139°58'0 0.2
2017-Nov-14 18:00N 35°29' E 139°58'0 0.1
2017-Nov-14 17:28N 35°29' E 139°58'0 0.0
2017-Nov-14 14:50N 35°29' E 139°58'0 0.0
2017-Nov-14 14:28N 35°29' E 139°58'0 0.1
2017-Nov-14 13:59N 35°29' E 139°58'0 0.1
2017-Nov-14 13:30N 35°29' E 139°58'0 0.1
2017-Nov-14 12:57N 35°29' E 139°58'0 0.1
2017-Nov-14 12:30N 35°29' E 139°58'0 0.0
2017-Nov-14 10:40N 35°29' E 139°58'0 0.3
2017-Nov-14 10:09N 35°29' E 139°58'0 0.0
2017-Nov-14 07:01N 35°29' E 139°58'0 0.0
2017-Nov-14 05:38N 35°29' E 139°58'0 0.1
2017-Nov-14 04:37N 35°29' E 139°58'2 1.1
2017-Nov-14 02:56N 35°29' E 139°56'2 0.1
2017-Nov-12 18:24N 35°29' E 139°58'0 0.1
2017-Nov-12 16:58N 35°29' E 139°58'0 0.0
2017-Nov-12 15:04N 35°29' E 139°58'0 0.2
2017-Nov-12 14:34N 35°29' E 139°58'0 0.5
2017-Nov-12 14:16N 35°29' E 139°58'0 0.1
2017-Nov-12 12:31N 35°29' E 139°58'0 0.0
2017-Nov-12 11:12N 35°29' E 139°58'0 0.1
2017-Nov-12 07:00N 35°28' E 139°58'0 0.1
2017-Nov-12 03:07N 35°29' E 139°58'0 0.4
2017-Nov-12 02:59N 35°29' E 139°58'0 0.1
2017-Nov-12 02:11N 35°29' E 139°58'0 0.1
2017-Nov-12 01:55N 35°29' E 139°58'9 6.5
2017-Nov-12 00:30N 35°25' E 139°48'612.5
2017-Nov-12 00:01N 35°20' E 139°44'612.3
2017-Nov-11 23:30N 35°14' E 139°47'5 9.5
2017-Nov-11 23:00N 35°09' E 139°46'2 4.1
2017-Nov-11 22:30N 35°11' E 139°45'3 4.4
2017-Nov-11 21:54N 35°13' E 139°43'0 0.0
2017-Nov-11 21:26N 35°13' E 139°43'0 0.0
2017-Nov-11 20:59N 35°13' E 139°43'0 0.0
2017-Nov-11 20:29N 35°13' E 139°43'0 0.0
2017-Nov-11 20:00N 35°13' E 139°43'0 0.0
2017-Nov-11 19:30N 35°13' E 139°43'0 0.0
2017-Nov-11 19:00N 35°13' E 139°43'0 0.0
2017-Nov-11 18:30N 35°13' E 139°43'0 0.0
2017-Nov-11 17:59N 35°13' E 139°43'0 0.0
2017-Nov-11 17:27N 35°13' E 139°43'0 0.0
2017-Nov-11 16:58N 35°13' E 139°43'0 0.0
2017-Nov-11 16:25N 35°13' E 139°43'0 0.0
2017-Nov-11 15:57N 35°13' E 139°43'0 0.0
2017-Nov-11 15:27N 35°13' E 139°43'0 0.0
2017-Nov-11 15:00N 35°13' E 139°43'0 0.0
2017-Nov-11 14:07N 35°13' E 139°43'0 0.0
2017-Nov-11 13:53N 35°13' E 139°43'0 0.0
2017-Nov-11 13:22N 35°13' E 139°43'0 0.0
2017-Nov-11 12:57N 35°13' E 139°43'0 0.0
2017-Nov-11 12:30N 35°13' E 139°43'3 6.7
2017-Nov-11 12:00N 35°16' E 139°44'613.1
2017-Nov-11 11:30N 35°22' E 139°41'612.4
2017-Nov-11 11:00N 35°28' E 139°40'1 1.2
2017-Nov-11 10:31N 35°29' E 139°40'4 7.5
2017-Nov-11 10:00N 35°27' E 139°44'713.5
2017-Nov-11 09:28N 35°30' E 139°53'3 0.3
2017-Nov-10 21:27N 35°31' E 139°56'3 0.2
2017-Nov-10 05:21N 35°30' E 139°53'512.6
2017-Nov-10 04:57N 35°30' E 139°47'1 1.6
2017-Nov-10 04:30N 35°30' E 139°46'2 3.2
2017-Nov-10 03:55N 35°30' E 139°48'2 5.1
2017-Nov-10 03:30N 35°31' E 139°51'  
Track history (hours):
 
Tides and Currents Weather Stations Pressure Air Temp Water Temp Dewpoint Dewpoint Depression Visibility Wind Speed Wind Dir Waves Ship Positions

Ise Maru

Last reported at 2017-Nov-20 00:24 UTC. Time now 2017-Nov-22 09:22 UTC.
Position N 35°29' E 139°58'.

Length 34 m; draft 3.5 m.

Type: Tug. MMSI: 431101046.

Date/timePositionNaut miles runAvg speedWind from/ knotsBaromVisibWave heightAir tempDewpointWater temp
2017-Nov-20 00:24N 35°29' E 139°58'2 5.2
2017-Nov-20 00:00N 35°28' E 139°55'4 7.1
2017-Nov-19 23:23N 35°29' E 140°00'6 0.3
2017-Nov-19 02:13N 35°27' E 139°53'413.3
2017-Nov-19 01:55N 35°25' E 139°50'512.0
2017-Nov-19 01:30N 35°23' E 139°44'5 9.9
2017-Nov-19 01:00N 35°24' E 139°38'0 0.2
2017-Nov-19 00:30N 35°24' E 139°38'0 0.3
2017-Nov-19 00:00N 35°24' E 139°38'0 0.0
2017-Nov-18 23:30N 35°24' E 139°38'0 0.1
2017-Nov-18 23:00N 35°24' E 139°38'0 0.6
2017-Nov-18 22:30N 35°24' E 139°38'0 0.7
2017-Nov-18 22:00N 35°24' E 139°38'1 1.6
2017-Nov-18 21:30N 35°24' E 139°39'612.5
2017-Nov-18 21:00N 35°24' E 139°47'713.2
2017-Nov-18 20:30N 35°28' E 139°53'3 0.2
2017-Nov-18 01:58N 35°30' E 139°54'613.7
2017-Nov-18 01:30N 35°30' E 139°46'1 2.0
2017-Nov-18 01:00N 35°29' E 139°45'0 0.1
2017-Nov-18 00:30N 35°29' E 139°45'3 5.7
2017-Nov-18 00:00N 35°28' E 139°42'0 0.3
2017-Nov-17 23:30N 35°28' E 139°42'0 0.0
2017-Nov-17 22:57N 35°28' E 139°42'0 0.0
2017-Nov-17 22:30N 35°28' E 139°42'0 0.0
2017-Nov-17 22:00N 35°28' E 139°42'0 0.0
2017-Nov-17 21:30N 35°28' E 139°42'0 0.0
2017-Nov-17 20:57N 35°28' E 139°42'0 0.0
2017-Nov-17 20:30N 35°28' E 139°42'0 0.0
2017-Nov-17 20:00N 35°28' E 139°42'0 0.0
2017-Nov-17 19:27N 35°28' E 139°42'0 0.0
2017-Nov-17 18:57N 35°28' E 139°42'0 0.0
2017-Nov-17 18:30N 35°28' E 139°42'0 0.0
2017-Nov-17 18:00N 35°28' E 139°42'0 0.0
2017-Nov-17 17:30N 35°28' E 139°42'0 0.0
2017-Nov-17 17:00N 35°28' E 139°42'0 0.0
2017-Nov-17 16:30N 35°28' E 139°42'0 0.0
2017-Nov-17 16:00N 35°28' E 139°42'0 0.0
2017-Nov-17 15:30N 35°28' E 139°42'2 3.1
2017-Nov-17 15:00N 35°26' E 139°41'1 2.1
2017-Nov-17 14:30N 35°26' E 139°42'0 0.7
2017-Nov-17 14:00N 35°26' E 139°42'4 9.1
2017-Nov-17 13:30N 35°28' E 139°47'9 0.6
2017-Nov-16 22:05N 35°29' E 139°58'0 0.6
2017-Nov-16 21:40N 35°28' E 139°58'0 0.1
2017-Nov-16 18:38N 35°29' E 139°58'0 0.2
2017-Nov-16 18:12N 35°29' E 139°58'0 0.0
2017-Nov-16 17:47N 35°29' E 139°58'0 0.2
2017-Nov-16 17:28N 35°29' E 139°58'0 0.0
2017-Nov-16 08:15N 35°29' E 139°58'0 0.0
2017-Nov-16 02:05N 35°28' E 139°58'0 0.8
2017-Nov-16 01:50N 35°29' E 139°58'0 0.1
2017-Nov-16 01:18N 35°29' E 139°58'0 0.5
2017-Nov-16 00:50N 35°29' E 139°58'7 1.7
2017-Nov-15 20:26N 35°30' E 139°49'2 4.3
2017-Nov-15 20:00N 35°30' E 139°47'1 2.0
2017-Nov-15 19:31N 35°30' E 139°46'0 0.1
2017-Nov-15 19:00N 35°30' E 139°46'611.2
2017-Nov-15 18:30N 35°30' E 139°53'5 0.3
2017-Nov-14 23:49N 35°29' E 139°58'0 0.2
2017-Nov-14 23:19N 35°29' E 139°58'0 0.4
2017-Nov-14 22:51N 35°29' E 139°58'0 0.1
2017-Nov-14 22:06N 35°29' E 139°58'0 0.2
2017-Nov-14 21:47N 35°29' E 139°58'0 0.0
2017-Nov-14 18:19N 35°29' E 139°58'0 0.2
2017-Nov-14 18:00N 35°29' E 139°58'0 0.1
2017-Nov-14 17:28N 35°29' E 139°58'0 0.0
2017-Nov-14 14:50N 35°29' E 139°58'0 0.0
2017-Nov-14 14:28N 35°29' E 139°58'0 0.1
2017-Nov-14 13:59N 35°29' E 139°58'0 0.1
2017-Nov-14 13:30N 35°29' E 139°58'0 0.1
2017-Nov-14 12:57N 35°29' E 139°58'0 0.1
2017-Nov-14 12:30N 35°29' E 139°58'0 0.0
2017-Nov-14 10:40N 35°29' E 139°58'0 0.3
2017-Nov-14 10:09N 35°29' E 139°58'0 0.0
2017-Nov-14 07:01N 35°29' E 139°58'0 0.0
2017-Nov-14 05:38N 35°29' E 139°58'0 0.1
2017-Nov-14 04:37N 35°29' E 139°58'2 1.1
2017-Nov-14 02:56N 35°29' E 139°56'2 0.1
2017-Nov-12 18:24N 35°29' E 139°58'0 0.1
2017-Nov-12 16:58N 35°29' E 139°58'0 0.0
2017-Nov-12 15:04N 35°29' E 139°58'0 0.2
2017-Nov-12 14:34N 35°29' E 139°58'0 0.5
2017-Nov-12 14:16N 35°29' E 139°58'0 0.1
2017-Nov-12 12:31N 35°29' E 139°58'0 0.0
2017-Nov-12 11:12N 35°29' E 139°58'0 0.1
2017-Nov-12 07:00N 35°28' E 139°58'0 0.1
2017-Nov-12 03:07N 35°29' E 139°58'0 0.4
2017-Nov-12 02:59N 35°29' E 139°58'0 0.1
2017-Nov-12 02:11N 35°29' E 139°58'0 0.1
2017-Nov-12 01:55N 35°29' E 139°58'9 6.5
2017-Nov-12 00:30N 35°25' E 139°48'612.5
2017-Nov-12 00:01N 35°20' E 139°44'612.3
2017-Nov-11 23:30N 35°14' E 139°47'5 9.5
2017-Nov-11 23:00N 35°09' E 139°46'2 4.1
2017-Nov-11 22:30N 35°11' E 139°45'3 4.4
2017-Nov-11 21:54N 35°13' E 139°43'0 0.0
2017-Nov-11 21:26N 35°13' E 139°43'0 0.0
2017-Nov-11 20:59N 35°13' E 139°43'0 0.0
2017-Nov-11 20:29N 35°13' E 139°43'0 0.0
2017-Nov-11 20:00N 35°13' E 139°43'0 0.0
2017-Nov-11 19:30N 35°13' E 139°43'0 0.0
2017-Nov-11 19:00N 35°13' E 139°43'0 0.0
2017-Nov-11 18:30N 35°13' E 139°43'0 0.0
2017-Nov-11 17:59N 35°13' E 139°43'0 0.0
2017-Nov-11 17:27N 35°13' E 139°43'0 0.0
2017-Nov-11 16:58N 35°13' E 139°43'0 0.0
2017-Nov-11 16:25N 35°13' E 139°43'0 0.0
2017-Nov-11 15:57N 35°13' E 139°43'0 0.0
2017-Nov-11 15:27N 35°13' E 139°43'0 0.0
2017-Nov-11 15:00N 35°13' E 139°43'0 0.0
2017-Nov-11 14:07N 35°13' E 139°43'0 0.0
2017-Nov-11 13:53N 35°13' E 139°43'0 0.0
2017-Nov-11 13:22N 35°13' E 139°43'0 0.0
2017-Nov-11 12:57N 35°13' E 139°43'0 0.0
2017-Nov-11 12:30N 35°13' E 139°43'3 6.7
2017-Nov-11 12:00N 35°16' E 139°44'613.1
2017-Nov-11 11:30N 35°22' E 139°41'612.4
2017-Nov-11 11:00N 35°28' E 139°40'1 1.2
2017-Nov-11 10:31N 35°29' E 139°40'4 7.5
2017-Nov-11 10:00N 35°27' E 139°44'713.5
2017-Nov-11 09:28N 35°30' E 139°53'3 0.3
2017-Nov-10 21:27N 35°31' E 139°56'3 0.2
2017-Nov-10 05:21N 35°30' E 139°53'512.6
2017-Nov-10 04:57N 35°30' E 139°47'1 1.6
2017-Nov-10 04:30N 35°30' E 139°46'2 3.2
2017-Nov-10 03:55N 35°30' E 139°48'2 5.1
2017-Nov-10 03:30N 35°31' E 139°51'  

Dump ship's entire track history